sensor_id;sensor_type;location;lat;lon;timestamp;P1;P2;P0
43479;PMS5003;29067;35.492;-97.520;2022-10-18T00:00:18;1;0;
43479;PMS5003;29067;35.492;-97.520;2022-10-18T00:02:46;1;0;
43479;PMS5003;29067;35.492;-97.520;2022-10-18T00:05:14;2;1;
43479;PMS5003;29067;35.492;-97.520;2022-10-18T00:07:42;1;1;
43479;PMS5003;29067;35.492;-97.520;2022-10-18T00:10:10;3;1;
43479;PMS5003;29067;35.492;-97.520;2022-10-18T00:12:37;2;2;
43479;PMS5003;29067;35.492;-97.520;2022-10-18T00:15:06;1;1;
43479;PMS5003;29067;35.492;-97.520;2022-10-18T00:17:35;1;1;
43479;PMS5003;29067;35.492;-97.520;2022-10-18T00:20:05;1;1;
43479;PMS5003;29067;35.492;-97.520;2022-10-18T00:22:33;1;1;
43479;PMS5003;29067;35.492;-97.520;2022-10-18T00:25:03;1;1;
43479;PMS5003;29067;35.492;-97.520;2022-10-18T00:27:32;2;1;
43479;PMS5003;29067;35.492;-97.520;2022-10-18T00:30:01;1;1;
43479;PMS5003;29067;35.492;-97.520;2022-10-18T00:32:29;7;7;
43479;PMS5003;29067;35.492;-97.520;2022-10-18T00:35:01;6;5;
43479;PMS5003;29067;35.492;-97.520;2022-10-18T00:37:29;13;8;
43479;PMS5003;29067;35.492;-97.520;2022-10-18T00:39:57;9;5;
43479;PMS5003;29067;35.492;-97.520;2022-10-18T00:42:26;5;5;
43479;PMS5003;29067;35.492;-97.520;2022-10-18T00:44:59;5;4;
43479;PMS5003;29067;35.492;-97.520;2022-10-18T00:47:31;5;5;
43479;PMS5003;29067;35.492;-97.520;2022-10-18T00:50:00;3;2;
43479;PMS5003;29067;35.492;-97.520;2022-10-18T00:52:33;3;3;
43479;PMS5003;29067;35.492;-97.520;2022-10-18T00:55:04;4;4;
43479;PMS5003;29067;35.492;-97.520;2022-10-18T00:57:34;6;6;
43479;PMS5003;29067;35.492;-97.520;2022-10-18T01:00:03;2;2;
43479;PMS5003;29067;35.492;-97.520;2022-10-18T01:02:32;3;3;
43479;PMS5003;29067;35.492;-97.520;2022-10-18T01:05:00;4;4;
43479;PMS5003;29067;35.492;-97.520;2022-10-18T01:07:32;5;5;
43479;PMS5003;29067;35.492;-97.520;2022-10-18T01:10:15;6;6;
43479;PMS5003;29067;35.492;-97.520;2022-10-18T01:12:54;5;5;
43479;PMS5003;29067;35.492;-97.520;2022-10-18T01:15:33;5;5;
43479;PMS5003;29067;35.492;-97.520;2022-10-18T01:18:10;5;5;
43479;PMS5003;29067;35.492;-97.520;2022-10-18T01:20:59;5;3;
43479;PMS5003;29067;35.492;-97.520;2022-10-18T01:23:39;3;3;
43479;PMS5003;29067;35.492;-97.520;2022-10-18T01:26:29;7;4;
43479;PMS5003;29067;35.492;-97.520;2022-10-18T01:29:11;5;4;
43479;PMS5003;29067;35.492;-97.520;2022-10-18T01:31:47;4;4;
43479;PMS5003;29067;35.492;-97.520;2022-10-18T01:34:20;4;4;
43479;PMS5003;29067;35.492;-97.520;2022-10-18T01:36:52;4;3;
43479;PMS5003;29067;35.492;-97.520;2022-10-18T01:39:23;3;2;
43479;PMS5003;29067;35.492;-97.520;2022-10-18T01:41:55;6;4;
43479;PMS5003;29067;35.492;-97.520;2022-10-18T01:44:27;4;3;
43479;PMS5003;29067;35.492;-97.520;2022-10-18T01:46:58;4;4;
43479;PMS5003;29067;35.492;-97.520;2022-10-18T01:49:26;7;7;
43479;PMS5003;29067;35.492;-97.520;2022-10-18T01:51:54;7;7;
43479;PMS5003;29067;35.492;-97.520;2022-10-18T01:54:24;7;7;
43479;PMS5003;29067;35.492;-97.520;2022-10-18T01:57:00;7;7;
43479;PMS5003;29067;35.492;-97.520;2022-10-18T01:59:33;7;7;
43479;PMS5003;29067;35.492;-97.520;2022-10-18T02:02:14;14;13;
43479;PMS5003;29067;35.492;-97.520;2022-10-18T02:04:53;14;14;
43479;PMS5003;29067;35.492;-97.520;2022-10-18T02:07:30;17;17;
43479;PMS5003;29067;35.492;-97.520;2022-10-18T02:10:05;18;17;
43479;PMS5003;29067;35.492;-97.520;2022-10-18T02:12:39;9;9;
43479;PMS5003;29067;35.492;-97.520;2022-10-18T02:15:11;13;13;
43479;PMS5003;29067;35.492;-97.520;2022-10-18T02:17:43;11;11;
43479;PMS5003;29067;35.492;-97.520;2022-10-18T02:20:12;11;11;
43479;PMS5003;29067;35.492;-97.520;2022-10-18T02:22:43;17;17;
43479;PMS5003;29067;35.492;-97.520;2022-10-18T02:25:16;10;10;
43479;PMS5003;29067;35.492;-97.520;2022-10-18T02:27:47;6;6;
43479;PMS5003;29067;35.492;-97.520;2022-10-18T02:30:15;5;5;
43479;PMS5003;29067;35.492;-97.520;2022-10-18T02:32:45;7;6;
43479;PMS5003;29067;35.492;-97.520;2022-10-18T02:35:19;5;5;
43479;PMS5003;29067;35.492;-97.520;2022-10-18T02:37:51;4;4;
43479;PMS5003;29067;35.492;-97.520;2022-10-18T02:40:22;4;2;
43479;PMS5003;29067;35.492;-97.520;2022-10-18T02:42:53;2;2;
43479;PMS5003;29067;35.492;-97.520;2022-10-18T02:45:22;3;2;
43479;PMS5003;29067;35.492;-97.520;2022-10-18T02:47:51;3;2;
43479;PMS5003;29067;35.492;-97.520;2022-10-18T02:50:19;2;2;
43479;PMS5003;29067;35.492;-97.520;2022-10-18T02:52:47;2;2;
43479;PMS5003;29067;35.492;-97.520;2022-10-18T02:55:15;2;2;
43479;PMS5003;29067;35.492;-97.520;2022-10-18T02:57:43;3;2;
43479;PMS5003;29067;35.492;-97.520;2022-10-18T03:00:12;3;3;
43479;PMS5003;29067;35.492;-97.520;2022-10-18T03:02:40;3;2;
43479;PMS5003;29067;35.492;-97.520;2022-10-18T03:05:08;2;2;
43479;PMS5003;29067;35.492;-97.520;2022-10-18T03:07:36;2;2;
43479;PMS5003;29067;35.492;-97.520;2022-10-18T03:10:04;1;1;
43479;PMS5003;29067;35.492;-97.520;2022-10-18T03:12:32;4;3;
43479;PMS5003;29067;35.492;-97.520;2022-10-18T03:15:00;6;3;
43479;PMS5003;29067;35.492;-97.520;2022-10-18T03:17:28;4;3;
43479;PMS5003;29067;35.492;-97.520;2022-10-18T03:19:56;3;3;
43479;PMS5003;29067;35.492;-97.520;2022-10-18T03:22:24;3;3;
43479;PMS5003;29067;35.492;-97.520;2022-10-18T03:24:52;2;2;
43479;PMS5003;29067;35.492;-97.520;2022-10-18T03:27:20;3;3;
43479;PMS5003;29067;35.492;-97.520;2022-10-18T03:29:47;4;3;
43479;PMS5003;29067;35.492;-97.520;2022-10-18T03:32:15;3;3;
43479;PMS5003;29067;35.492;-97.520;2022-10-18T03:34:43;3;3;
43479;PMS5003;29067;35.492;-97.520;2022-10-18T03:37:11;4;4;
43479;PMS5003;29067;35.492;-97.520;2022-10-18T03:39:39;3;3;
43479;PMS5003;29067;35.492;-97.520;2022-10-18T03:42:07;6;5;
43479;PMS5003;29067;35.492;-97.520;2022-10-18T03:44:35;6;4;
43479;PMS5003;29067;35.492;-97.520;2022-10-18T03:47:03;4;4;
43479;PMS5003;29067;35.492;-97.520;2022-10-18T03:49:31;6;6;
43479;PMS5003;29067;35.492;-97.520;2022-10-18T03:51:59;5;5;
43479;PMS5003;29067;35.492;-97.520;2022-10-18T03:54:27;5;5;
43479;PMS5003;29067;35.492;-97.520;2022-10-18T03:56:55;7;6;
43479;PMS5003;29067;35.492;-97.520;2022-10-18T03:59:23;6;6;
43479;PMS5003;29067;35.492;-97.520;2022-10-18T04:01:51;10;8;
43479;PMS5003;29067;35.492;-97.520;2022-10-18T04:04:19;8;7;
43479;PMS5003;29067;35.492;-97.520;2022-10-18T04:06:47;5;4;
43479;PMS5003;29067;35.492;-97.520;2022-10-18T04:09:15;5;5;
43479;PMS5003;29067;35.492;-97.520;2022-10-18T04:11:43;6;5;
43479;PMS5003;29067;35.492;-97.520;2022-10-18T04:14:11;4;4;
43479;PMS5003;29067;35.492;-97.520;2022-10-18T04:16:39;6;5;
43479;PMS5003;29067;35.492;-97.520;2022-10-18T04:19:07;5;5;
43479;PMS5003;29067;35.492;-97.520;2022-10-18T04:21:34;5;5;
43479;PMS5003;29067;35.492;-97.520;2022-10-18T04:24:03;6;6;
43479;PMS5003;29067;35.492;-97.520;2022-10-18T04:26:31;5;5;
43479;PMS5003;29067;35.492;-97.520;2022-10-18T04:28:59;5;5;
43479;PMS5003;29067;35.492;-97.520;2022-10-18T04:31:27;9;9;
43479;PMS5003;29067;35.492;-97.520;2022-10-18T04:33:55;7;6;
43479;PMS5003;29067;35.492;-97.520;2022-10-18T04:36:23;6;6;
43479;PMS5003;29067;35.492;-97.520;2022-10-18T04:38:51;6;5;
43479;PMS5003;29067;35.492;-97.520;2022-10-18T04:41:19;9;6;
43479;PMS5003;29067;35.492;-97.520;2022-10-18T04:43:47;7;6;
43479;PMS5003;29067;35.492;-97.520;2022-10-18T04:46:15;5;5;
43479;PMS5003;29067;35.492;-97.520;2022-10-18T04:48:43;5;5;
43479;PMS5003;29067;35.492;-97.520;2022-10-18T04:51:11;6;5;
43479;PMS5003;29067;35.492;-97.520;2022-10-18T04:53:39;9;7;
43479;PMS5003;29067;35.492;-97.520;2022-10-18T04:56:07;7;7;
43479;PMS5003;29067;35.492;-97.520;2022-10-18T04:58:35;7;7;
43479;PMS5003;29067;35.492;-97.520;2022-10-18T05:01:04;12;9;
43479;PMS5003;29067;35.492;-97.520;2022-10-18T05:03:33;4;4;
43479;PMS5003;29067;35.492;-97.520;2022-10-18T05:06:01;7;6;
43479;PMS5003;29067;35.492;-97.520;2022-10-18T05:08:29;7;7;
43479;PMS5003;29067;35.492;-97.520;2022-10-18T05:10:57;5;5;
43479;PMS5003;29067;35.492;-97.520;2022-10-18T05:13:25;6;6;
43479;PMS5003;29067;35.492;-97.520;2022-10-18T05:15:53;6;6;
43479;PMS5003;29067;35.492;-97.520;2022-10-18T05:18:21;5;5;
43479;PMS5003;29067;35.492;-97.520;2022-10-18T05:20:49;5;5;
43479;PMS5003;29067;35.492;-97.520;2022-10-18T05:23:17;5;5;
43479;PMS5003;29067;35.492;-97.520;2022-10-18T05:25:45;13;13;
43479;PMS5003;29067;35.492;-97.520;2022-10-18T05:28:13;15;15;
43479;PMS5003;29067;35.492;-97.520;2022-10-18T05:30:41;26;25;
43479;PMS5003;29067;35.492;-97.520;2022-10-18T05:33:09;43;41;
43479;PMS5003;29067;35.492;-97.520;2022-10-18T05:35:37;44;43;
43479;PMS5003;29067;35.492;-97.520;2022-10-18T05:38:06;34;33;
43479;PMS5003;29067;35.492;-97.520;2022-10-18T05:40:36;41;41;
43479;PMS5003;29067;35.492;-97.520;2022-10-18T05:43:04;54;54;
43479;PMS5003;29067;35.492;-97.520;2022-10-18T05:45:33;87;87;
43479;PMS5003;29067;35.492;-97.520;2022-10-18T05:48:01;124;122;
43479;PMS5003;29067;35.492;-97.520;2022-10-18T05:50:29;37;32;
43479;PMS5003;29067;35.492;-97.520;2022-10-18T05:52:57;42;38;
43479;PMS5003;29067;35.492;-97.520;2022-10-18T05:55:24;14;10;
43479;PMS5003;29067;35.492;-97.520;2022-10-18T05:57:52;111;111;
43479;PMS5003;29067;35.492;-97.520;2022-10-18T06:00:20;32;29;
43479;PMS5003;29067;35.492;-97.520;2022-10-18T06:02:48;32;28;
43479;PMS5003;29067;35.492;-97.520;2022-10-18T06:05:16;147;146;
43479;PMS5003;29067;35.492;-97.520;2022-10-18T06:07:44;24;22;
43479;PMS5003;29067;35.492;-97.520;2022-10-18T06:10:12;23;19;
43479;PMS5003;29067;35.492;-97.520;2022-10-18T06:12:40;78;78;
43479;PMS5003;29067;35.492;-97.520;2022-10-18T06:15:08;146;145;
43479;PMS5003;29067;35.492;-97.520;2022-10-18T06:17:36;87;87;
43479;PMS5003;29067;35.492;-97.520;2022-10-18T06:20:05;79;77;
43479;PMS5003;29067;35.492;-97.520;2022-10-18T06:22:33;26;23;
43479;PMS5003;29067;35.492;-97.520;2022-10-18T06:25:01;37;37;
43479;PMS5003;29067;35.492;-97.520;2022-10-18T06:27:30;43;41;
43479;PMS5003;29067;35.492;-97.520;2022-10-18T06:30:00;94;94;
43479;PMS5003;29067;35.492;-97.520;2022-10-18T06:32:28;15;10;
43479;PMS5003;29067;35.492;-97.520;2022-10-18T06:34:55;35;32;
43479;PMS5003;29067;35.492;-97.520;2022-10-18T06:37:23;9;5;
43479;PMS5003;29067;35.492;-97.520;2022-10-18T06:39:54;9;5;
43479;PMS5003;29067;35.492;-97.520;2022-10-18T06:42:22;21;17;
43479;PMS5003;29067;35.492;-97.520;2022-10-18T06:44:50;36;31;
43479;PMS5003;29067;35.492;-97.520;2022-10-18T06:47:18;31;28;
43479;PMS5003;29067;35.492;-97.520;2022-10-18T06:49:46;45;44;
43479;PMS5003;29067;35.492;-97.520;2022-10-18T06:52:15;14;11;
43479;PMS5003;29067;35.492;-97.520;2022-10-18T06:54:43;12;9;
43479;PMS5003;29067;35.492;-97.520;2022-10-18T06:57:12;19;17;
43479;PMS5003;29067;35.492;-97.520;2022-10-18T06:59:40;7;3;
43479;PMS5003;29067;35.492;-97.520;2022-10-18T07:02:08;45;43;
43479;PMS5003;29067;35.492;-97.520;2022-10-18T07:04:41;11;7;
43479;PMS5003;29067;35.492;-97.520;2022-10-18T07:07:09;51;50;
43479;PMS5003;29067;35.492;-97.520;2022-10-18T07:09:37;12;8;
43479;PMS5003;29067;35.492;-97.520;2022-10-18T07:12:05;36;35;
43479;PMS5003;29067;35.492;-97.520;2022-10-18T07:14:33;44;41;
43479;PMS5003;29067;35.492;-97.520;2022-10-18T07:17:01;31;25;
43479;PMS5003;29067;35.492;-97.520;2022-10-18T07:19:29;44;38;
43479;PMS5003;29067;35.492;-97.520;2022-10-18T07:21:57;8;4;
43479;PMS5003;29067;35.492;-97.520;2022-10-18T07:24:25;24;22;
43479;PMS5003;29067;35.492;-97.520;2022-10-18T07:26:53;32;27;
43479;PMS5003;29067;35.492;-97.520;2022-10-18T07:29:21;18;15;
43479;PMS5003;29067;35.492;-97.520;2022-10-18T07:31:49;26;21;
43479;PMS5003;29067;35.492;-97.520;2022-10-18T07:34:16;72;66;
43479;PMS5003;29067;35.492;-97.520;2022-10-18T07:36:44;144;140;
43479;PMS5003;29067;35.492;-97.520;2022-10-18T07:39:12;27;23;
43479;PMS5003;29067;35.492;-97.520;2022-10-18T07:41:40;26;21;
43479;PMS5003;29067;35.492;-97.520;2022-10-18T07:44:08;91;85;
43479;PMS5003;29067;35.492;-97.520;2022-10-18T07:46:36;89;84;
43479;PMS5003;29067;35.492;-97.520;2022-10-18T07:49:04;44;40;
43479;PMS5003;29067;35.492;-97.520;2022-10-18T07:51:31;79;76;
43479;PMS5003;29067;35.492;-97.520;2022-10-18T07:53:59;52;48;
43479;PMS5003;29067;35.492;-97.520;2022-10-18T07:56:27;154;148;
43479;PMS5003;29067;35.492;-97.520;2022-10-18T07:58:55;18;15;
43479;PMS5003;29067;35.492;-97.520;2022-10-18T08:01:23;48;46;
43479;PMS5003;29067;35.492;-97.520;2022-10-18T08:03:52;10;5;
43479;PMS5003;29067;35.492;-97.520;2022-10-18T08:06:21;2;2;
43479;PMS5003;29067;35.492;-97.520;2022-10-18T08:08:49;3;3;
43479;PMS5003;29067;35.492;-97.520;2022-10-18T08:11:18;3;3;
43479;PMS5003;29067;35.492;-97.520;2022-10-18T08:13:48;3;2;
43479;PMS5003;29067;35.492;-97.520;2022-10-18T08:16:17;3;2;
43479;PMS5003;29067;35.492;-97.520;2022-10-18T08:18:48;4;3;
43479;PMS5003;29067;35.492;-97.520;2022-10-18T08:21:16;3;3;
43479;PMS5003;29067;35.492;-97.520;2022-10-18T08:23:45;2;2;
43479;PMS5003;29067;35.492;-97.520;2022-10-18T08:26:13;1;1;
43479;PMS5003;29067;35.492;-97.520;2022-10-18T08:28:44;8;3;
43479;PMS5003;29067;35.492;-97.520;2022-10-18T08:31:13;2;2;
43479;PMS5003;29067;35.492;-97.520;2022-10-18T08:33:43;3;2;
43479;PMS5003;29067;35.492;-97.520;2022-10-18T08:36:12;3;2;
43479;PMS5003;29067;35.492;-97.520;2022-10-18T08:38:42;3;2;
43479;PMS5003;29067;35.492;-97.520;2022-10-18T08:41:18;2;2;
43479;PMS5003;29067;35.492;-97.520;2022-10-18T08:43:57;2;2;
43479;PMS5003;29067;35.492;-97.520;2022-10-18T08:46:34;3;2;
43479;PMS5003;29067;35.492;-97.520;2022-10-18T08:49:04;2;2;
43479;PMS5003;29067;35.492;-97.520;2022-10-18T08:51:38;2;2;
43479;PMS5003;29067;35.492;-97.520;2022-10-18T08:54:11;3;2;
43479;PMS5003;29067;35.492;-97.520;2022-10-18T08:56:42;2;2;
43479;PMS5003;29067;35.492;-97.520;2022-10-18T08:59:16;3;2;
43479;PMS5003;29067;35.492;-97.520;2022-10-18T09:01:46;2;2;
43479;PMS5003;29067;35.492;-97.520;2022-10-18T09:04:32;1;1;
43479;PMS5003;29067;35.492;-97.520;2022-10-18T09:07:17;2;1;
43479;PMS5003;29067;35.492;-97.520;2022-10-18T09:10:02;1;1;
43479;PMS5003;29067;35.492;-97.520;2022-10-18T09:12:47;2;2;
43479;PMS5003;29067;35.492;-97.520;2022-10-18T09:15:28;3;2;
43479;PMS5003;29067;35.492;-97.520;2022-10-18T09:18:10;3;3;
43479;PMS5003;29067;35.492;-97.520;2022-10-18T09:20:48;4;3;
43479;PMS5003;29067;35.492;-97.520;2022-10-18T09:23:20;3;2;
43479;PMS5003;29067;35.492;-97.520;2022-10-18T09:25:56;3;2;
43479;PMS5003;29067;35.492;-97.520;2022-10-18T09:28:34;2;2;
43479;PMS5003;29067;35.492;-97.520;2022-10-18T09:31:14;3;2;
43479;PMS5003;29067;35.492;-97.520;2022-10-18T09:33:48;2;2;
43479;PMS5003;29067;35.492;-97.520;2022-10-18T09:36:20;4;4;
43479;PMS5003;29067;35.492;-97.520;2022-10-18T09:38:52;3;3;
43479;PMS5003;29067;35.492;-97.520;2022-10-18T09:41:23;4;2;
43479;PMS5003;29067;35.492;-97.520;2022-10-18T09:43:55;1;1;
43479;PMS5003;29067;35.492;-97.520;2022-10-18T09:46:35;3;3;
43479;PMS5003;29067;35.492;-97.520;2022-10-18T09:49:09;3;3;
43479;PMS5003;29067;35.492;-97.520;2022-10-18T09:51:42;4;3;
43479;PMS5003;29067;35.492;-97.520;2022-10-18T09:54:16;2;2;
43479;PMS5003;29067;35.492;-97.520;2022-10-18T09:56:48;2;2;
43479;PMS5003;29067;35.492;-97.520;2022-10-18T09:59:30;4;3;
43479;PMS5003;29067;35.492;-97.520;2022-10-18T10:02:03;3;3;
43479;PMS5003;29067;35.492;-97.520;2022-10-18T10:04:31;3;2;
43479;PMS5003;29067;35.492;-97.520;2022-10-18T10:07:00;2;2;
43479;PMS5003;29067;35.492;-97.520;2022-10-18T10:09:35;4;3;
43479;PMS5003;29067;35.492;-97.520;2022-10-18T10:12:21;3;3;
43479;PMS5003;29067;35.492;-97.520;2022-10-18T10:14:53;1;1;
43479;PMS5003;29067;35.492;-97.520;2022-10-18T10:17:31;3;3;
43479;PMS5003;29067;35.492;-97.520;2022-10-18T10:20:01;2;2;
43479;PMS5003;29067;35.492;-97.520;2022-10-18T10:22:40;3;3;
43479;PMS5003;29067;35.492;-97.520;2022-10-18T10:25:18;2;2;
43479;PMS5003;29067;35.492;-97.520;2022-10-18T10:27:49;2;2;
43479;PMS5003;29067;35.492;-97.520;2022-10-18T10:30:21;2;1;
43479;PMS5003;29067;35.492;-97.520;2022-10-18T10:32:52;2;2;
43479;PMS5003;29067;35.492;-97.520;2022-10-18T10:35:23;3;3;
43479;PMS5003;29067;35.492;-97.520;2022-10-18T10:37:56;1;1;
43479;PMS5003;29067;35.492;-97.520;2022-10-18T10:40:24;3;2;
43479;PMS5003;29067;35.492;-97.520;2022-10-18T10:43:02;2;2;
43479;PMS5003;29067;35.492;-97.520;2022-10-18T10:45:34;1;1;
43479;PMS5003;29067;35.492;-97.520;2022-10-18T10:48:05;3;2;
43479;PMS5003;29067;35.492;-97.520;2022-10-18T10:50:50;4;2;
43479;PMS5003;29067;35.492;-97.520;2022-10-18T10:53:25;3;3;
43479;PMS5003;29067;35.492;-97.520;2022-10-18T10:55:56;2;2;
43479;PMS5003;29067;35.492;-97.520;2022-10-18T10:58:27;1;1;
43479;PMS5003;29067;35.492;-97.520;2022-10-18T11:03:04;2;2;
43479;PMS5003;29067;35.492;-97.520;2022-10-18T11:05:42;1;1;
43479;PMS5003;29067;35.492;-97.520;2022-10-18T11:08:12;3;3;
43479;PMS5003;29067;35.492;-97.520;2022-10-18T11:10:51;2;1;
43479;PMS5003;29067;35.492;-97.520;2022-10-18T11:13:30;2;2;
43479;PMS5003;29067;35.492;-97.520;2022-10-18T11:16:11;3;2;
43479;PMS5003;29067;35.492;-97.520;2022-10-18T11:18:46;1;1;
43479;PMS5003;29067;35.492;-97.520;2022-10-18T11:21:18;2;1;
43479;PMS5003;29067;35.492;-97.520;2022-10-18T11:23:49;1;1;
43479;PMS5003;29067;35.492;-97.520;2022-10-18T11:26:23;1;1;
43479;PMS5003;29067;35.492;-97.520;2022-10-18T11:29:38;2;2;
43479;PMS5003;29067;35.492;-97.520;2022-10-18T11:32:16;3;3;
43479;PMS5003;29067;35.492;-97.520;2022-10-18T11:34:57;2;2;
43479;PMS5003;29067;35.492;-97.520;2022-10-18T11:37:42;1;1;
43479;PMS5003;29067;35.492;-97.520;2022-10-18T11:40:28;2;2;
43479;PMS5003;29067;35.492;-97.520;2022-10-18T11:43:09;2;2;
43479;PMS5003;29067;35.492;-97.520;2022-10-18T11:45:48;2;1;
43479;PMS5003;29067;35.492;-97.520;2022-10-18T11:48:30;4;2;
43479;PMS5003;29067;35.492;-97.520;2022-10-18T11:51:07;1;1;
43479;PMS5003;29067;35.492;-97.520;2022-10-18T11:53:44;2;1;
43479;PMS5003;29067;35.492;-97.520;2022-10-18T11:56:28;1;1;
43479;PMS5003;29067;35.492;-97.520;2022-10-18T11:59:08;2;2;
43479;PMS5003;29067;35.492;-97.520;2022-10-18T12:01:51;1;1;
43479;PMS5003;29067;35.492;-97.520;2022-10-18T12:04:32;1;1;
43479;PMS5003;29067;35.492;-97.520;2022-10-18T12:07:03;3;2;
43479;PMS5003;29067;35.492;-97.520;2022-10-18T12:09:34;2;1;
43479;PMS5003;29067;35.492;-97.520;2022-10-18T12:12:06;1;1;
43479;PMS5003;29067;35.492;-97.520;2022-10-18T12:14:39;2;1;
43479;PMS5003;29067;35.492;-97.520;2022-10-18T12:17:15;2;1;
43479;PMS5003;29067;35.492;-97.520;2022-10-18T12:19:49;1;1;
43479;PMS5003;29067;35.492;-97.520;2022-10-18T12:22:21;1;1;
43479;PMS5003;29067;35.492;-97.520;2022-10-18T12:24:53;2;1;
43479;PMS5003;29067;35.492;-97.520;2022-10-18T12:27:23;1;1;
43479;PMS5003;29067;35.492;-97.520;2022-10-18T12:30:00;1;1;
43479;PMS5003;29067;35.492;-97.520;2022-10-18T12:32:37;2;1;
43479;PMS5003;29067;35.492;-97.520;2022-10-18T12:35:09;2;2;
43479;PMS5003;29067;35.492;-97.520;2022-10-18T12:37:48;1;1;
43479;PMS5003;29067;35.492;-97.520;2022-10-18T12:40:33;1;0;
43479;PMS5003;29067;35.492;-97.520;2022-10-18T12:43:06;0;0;
43479;PMS5003;29067;35.492;-97.520;2022-10-18T12:45:46;1;1;
43479;PMS5003;29067;35.492;-97.520;2022-10-18T12:48:33;2;2;
43479;PMS5003;29067;35.492;-97.520;2022-10-18T12:51:04;1;1;
43479;PMS5003;29067;35.492;-97.520;2022-10-18T12:53:39;1;1;
43479;PMS5003;29067;35.492;-97.520;2022-10-18T12:56:40;1;1;
43479;PMS5003;29067;35.492;-97.520;2022-10-18T12:59:42;1;1;
43479;PMS5003;29067;35.492;-97.520;2022-10-18T13:02:26;2;1;
43479;PMS5003;29067;35.492;-97.520;2022-10-18T13:04:56;1;1;
43479;PMS5003;29067;35.492;-97.520;2022-10-18T13:07:34;1;0;
43479;PMS5003;29067;35.492;-97.520;2022-10-18T13:10:36;0;0;
43479;PMS5003;29067;35.492;-97.520;2022-10-18T13:13:08;1;1;
43479;PMS5003;29067;35.492;-97.520;2022-10-18T13:15:50;2;2;
43479;PMS5003;29067;35.492;-97.520;2022-10-18T13:18:25;1;1;
43479;PMS5003;29067;35.492;-97.520;2022-10-18T13:20:59;1;1;
43479;PMS5003;29067;35.492;-97.520;2022-10-18T13:23:40;1;1;
43479;PMS5003;29067;35.492;-97.520;2022-10-18T13:26:18;1;1;
43479;PMS5003;29067;35.492;-97.520;2022-10-18T13:28:53;1;1;
43479;PMS5003;29067;35.492;-97.520;2022-10-18T13:31:29;1;1;
43479;PMS5003;29067;35.492;-97.520;2022-10-18T13:34:23;1;1;
43479;PMS5003;29067;35.492;-97.520;2022-10-18T13:36:55;1;1;
43479;PMS5003;29067;35.492;-97.520;2022-10-18T13:39:25;2;1;
43479;PMS5003;29067;35.492;-97.520;2022-10-18T13:43:07;4;2;
43479;PMS5003;29067;35.492;-97.520;2022-10-18T13:46:20;1;0;
43479;PMS5003;29067;35.492;-97.520;2022-10-18T13:48:50;1;1;
43479;PMS5003;29067;35.492;-97.520;2022-10-18T13:51:25;2;1;
43479;PMS5003;29067;35.492;-97.520;2022-10-18T13:54:04;1;1;
43479;PMS5003;29067;35.492;-97.520;2022-10-18T13:56:46;3;1;
43479;PMS5003;29067;35.492;-97.520;2022-10-18T13:59:25;1;1;
43479;PMS5003;29067;35.492;-97.520;2022-10-18T14:02:14;2;2;
43479;PMS5003;29067;35.492;-97.520;2022-10-18T14:05:58;0;0;
43479;PMS5003;29067;35.492;-97.520;2022-10-18T14:08:33;1;1;
43479;PMS5003;29067;35.492;-97.520;2022-10-18T14:11:06;0;0;
43479;PMS5003;29067;35.492;-97.520;2022-10-18T14:13:44;2;1;
43479;PMS5003;29067;35.492;-97.520;2022-10-18T14:16:22;2;1;
43479;PMS5003;29067;35.492;-97.520;2022-10-18T14:19:01;0;0;
43479;PMS5003;29067;35.492;-97.520;2022-10-18T14:21:40;1;1;
43479;PMS5003;29067;35.492;-97.520;2022-10-18T14:24:18;1;1;
43479;PMS5003;29067;35.492;-97.520;2022-10-18T14:26:52;4;1;
43479;PMS5003;29067;35.492;-97.520;2022-10-18T14:29:37;1;1;
43479;PMS5003;29067;35.492;-97.520;2022-10-18T14:32:07;1;1;
43479;PMS5003;29067;35.492;-97.520;2022-10-18T14:34:36;2;2;
43479;PMS5003;29067;35.492;-97.520;2022-10-18T14:37:04;1;1;
43479;PMS5003;29067;35.492;-97.520;2022-10-18T14:39:32;1;1;
43479;PMS5003;29067;35.492;-97.520;2022-10-18T14:42:03;1;1;
43479;PMS5003;29067;35.492;-97.520;2022-10-18T14:44:46;2;2;
43479;PMS5003;29067;35.492;-97.520;2022-10-18T14:47:15;1;1;
43479;PMS5003;29067;35.492;-97.520;2022-10-18T14:49:47;2;2;
43479;PMS5003;29067;35.492;-97.520;2022-10-18T14:52:16;2;1;
43479;PMS5003;29067;35.492;-97.520;2022-10-18T14:54:45;2;1;
43479;PMS5003;29067;35.492;-97.520;2022-10-18T14:57:15;3;2;
43479;PMS5003;29067;35.492;-97.520;2022-10-18T14:59:48;4;4;
43479;PMS5003;29067;35.492;-97.520;2022-10-18T15:02:20;5;4;
43479;PMS5003;29067;35.492;-97.520;2022-10-18T15:04:54;5;5;
43479;PMS5003;29067;35.492;-97.520;2022-10-18T15:07:24;5;5;
43479;PMS5003;29067;35.492;-97.520;2022-10-18T15:09:52;5;4;
43479;PMS5003;29067;35.492;-97.520;2022-10-18T15:12:22;2;2;
43479;PMS5003;29067;35.492;-97.520;2022-10-18T15:14:51;1;1;
43479;PMS5003;29067;35.492;-97.520;2022-10-18T15:17:21;3;2;
43479;PMS5003;29067;35.492;-97.520;2022-10-18T15:19:54;3;2;
43479;PMS5003;29067;35.492;-97.520;2022-10-18T15:22:25;2;2;
43479;PMS5003;29067;35.492;-97.520;2022-10-18T15:25:25;48;48;
43479;PMS5003;29067;35.492;-97.520;2022-10-18T15:27:55;98;98;
43479;PMS5003;29067;35.492;-97.520;2022-10-18T15:30:25;37;37;
43479;PMS5003;29067;35.492;-97.520;2022-10-18T15:32:55;84;81;
43479;PMS5003;29067;35.492;-97.520;2022-10-18T15:35:26;25;25;
43479;PMS5003;29067;35.492;-97.520;2022-10-18T15:37:57;15;15;
43479;PMS5003;29067;35.492;-97.520;2022-10-18T15:40:29;4;3;
43479;PMS5003;29067;35.492;-97.520;2022-10-18T15:43:00;1;1;
43479;PMS5003;29067;35.492;-97.520;2022-10-18T15:45:31;3;1;
43479;PMS5003;29067;35.492;-97.520;2022-10-18T15:48:15;0;0;
43479;PMS5003;29067;35.492;-97.520;2022-10-18T15:50:47;2;2;
43479;PMS5003;29067;35.492;-97.520;2022-10-18T15:53:34;2;2;
43479;PMS5003;29067;35.492;-97.520;2022-10-18T15:56:26;1;1;
43479;PMS5003;29067;35.492;-97.520;2022-10-18T15:58:56;0;0;
43479;PMS5003;29067;35.492;-97.520;2022-10-18T16:01:30;2;1;
43479;PMS5003;29067;35.492;-97.520;2022-10-18T16:04:01;1;1;
43479;PMS5003;29067;35.492;-97.520;2022-10-18T16:06:34;1;0;
43479;PMS5003;29067;35.492;-97.520;2022-10-18T16:09:02;1;1;
43479;PMS5003;29067;35.492;-97.520;2022-10-18T16:11:30;1;1;
43479;PMS5003;29067;35.492;-97.520;2022-10-18T16:13:58;3;2;
43479;PMS5003;29067;35.492;-97.520;2022-10-18T16:16:27;1;1;
43479;PMS5003;29067;35.492;-97.520;2022-10-18T16:18:55;1;1;
43479;PMS5003;29067;35.492;-97.520;2022-10-18T16:21:24;1;1;
43479;PMS5003;29067;35.492;-97.520;2022-10-18T16:23:54;2;1;
43479;PMS5003;29067;35.492;-97.520;2022-10-18T16:26:22;2;1;
43479;PMS5003;29067;35.492;-97.520;2022-10-18T16:28:50;1;1;
43479;PMS5003;29067;35.492;-97.520;2022-10-18T16:31:20;2;2;
43479;PMS5003;29067;35.492;-97.520;2022-10-18T16:33:49;3;2;
43479;PMS5003;29067;35.492;-97.520;2022-10-18T16:36:19;0;0;
43479;PMS5003;29067;35.492;-97.520;2022-10-18T16:38:49;1;0;
43479;PMS5003;29067;35.492;-97.520;2022-10-18T16:41:18;0;0;
43479;PMS5003;29067;35.492;-97.520;2022-10-18T16:43:46;1;0;
43479;PMS5003;29067;35.492;-97.520;2022-10-18T16:46:16;1;0;
43479;PMS5003;29067;35.492;-97.520;2022-10-18T16:48:46;1;0;